Friday, July 20, 2018, 8:22 PM EDT
Back to Local

KELZ, Wellsville Municipal Airport

Location: Wellsville, NY, United States Lat: 42.1
Local Time: 8:22 PM EDT ( 0:22 GMT) Lon: -78
Time Zone: US/Eastern Elev: 2122 ft

Show me the last for .
Show Decoded

2018-07-20 19:56 METAR KELZ 202356Z AUTO 15011G18KT 10SM CLR 23/15 A3005 RMK AO2 SLP163 T02330150
                 10267 20233 55004 =
2018-07-20 18:56 METAR KELZ 202256Z AUTO 16012G19KT 10SM CLR 24/14 A3004 RMK AO2 SLP161 T02440144
                 =
2018-07-20 17:56 METAR KELZ 202156Z AUTO 17009G16KT 10SM CLR 26/14 A3005 RMK AO2 SLP165 T02560139
                 =
2018-07-20 16:56 METAR KELZ 202056Z AUTO 16013G20KT 10SM CLR 26/14 A3006 RMK AO2 SLP169 T02560139
                 56015 =
2018-07-20 15:56 METAR KELZ 201956Z AUTO 16010G20KT 120V200 10SM BKN055 26/14 A3008 RMK AO2
                 SLP174 T02560144 =
2018-07-20 14:56 METAR KELZ 201856Z AUTO 16008G16KT 10SM CLR 27/16 A3009 RMK AO2 SLP176 T02670156
                 =
2018-07-20 13:56 METAR KELZ 201756Z AUTO 15009G19KT 10SM CLR 26/14 A3011 RMK AO2 SLP182 T02610144
                 10261 20194 58010 =
2018-07-20 12:56 METAR KELZ 201656Z AUTO 16007G18KT 10SM CLR 26/15 A3012 RMK AO2 SLP187 T02610150
                 =
2018-07-20 11:56 METAR KELZ 201556Z AUTO 20010G19KT 10SM CLR 25/14 A3014 RMK AO2 SLP192 T02500139
                 =
2018-07-20 10:56 METAR KELZ 201456Z AUTO 17008KT 130V210 10SM CLR 24/15 A3014 RMK AO2 SLP194
                 T02440150 58001 =
2018-07-20 09:56 METAR KELZ 201356Z AUTO 20009KT 160V230 10SM CLR 23/15 A3015 RMK AO2 SLP197
                 T02280150 =
2018-07-20 08:56 METAR KELZ 201256Z AUTO 16007KT 10SM CLR 22/16 A3015 RMK AO2 SLP198 T02170156 =
2018-07-20 07:56 METAR KELZ 201156Z AUTO 16007KT 10SM CLR 19/14 A3015 RMK AO2 SLP195 T01940144
                 10194 20150 53005 =
2018-07-20 06:56 METAR KELZ 201056Z AUTO VRB05KT 10SM CLR 18/13 A3014 RMK AO2 SLP194 T01780133 =
2018-07-20 05:56 METAR KELZ 200956Z AUTO 16003KT 10SM CLR 15/13 A3013 RMK AO2 SLP195 T01500128 =
2018-07-20 04:56 METAR KELZ 200856Z AUTO 14005KT 10SM CLR 15/13 A3013 RMK AO2 SLP193 T01500128
                 58001 =
2018-07-20 03:56 METAR KELZ 200756Z AUTO 16005KT 10SM CLR 16/13 A3014 RMK AO2 SLP195 T01610128 =
2018-07-20 02:56 METAR KELZ 200656Z AUTO 16005KT 10SM CLR 17/13 A3013 RMK AO2 SLP193 T01670133 =
2018-07-20 01:56 METAR KELZ 200556Z AUTO 17005KT 10SM CLR 18/13 A3013 RMK AO2 SLP193 T01780133
                 10244 20172 58001 =
2018-07-20 00:56 METAR KELZ 200456Z AUTO 15004KT 10SM CLR 18/13 A3015 RMK AO2 SLP198 T01830133
                 402610094 =
2018-07-19 23:56 METAR KELZ 200356Z AUTO 00000KT 10SM CLR 19/13 A3014 RMK AO2 SLP195 T01890133 =
2018-07-19 22:56 METAR KELZ 200256Z AUTO 00000KT 10SM CLR 19/14 A3014 RMK AO2 SLP195 T01890139
                 50005 =
2018-07-19 21:56 METAR KELZ 200156Z AUTO 00000KT 10SM CLR 20/14 A3014 RMK AO2 SLP197 T02000144 =
2018-07-19 20:56 METAR KELZ 200056Z AUTO 20004KT 10SM CLR 22/13 A3012 RMK AO2 SLP192 T02170133 =

Support USWX by starting your Amazon purchase here.